createdAt,value
2019-01-13T00:00:25.483Z,5.70
2019-01-13T00:00:56.685Z,6.10
2019-01-13T00:01:27.882Z,5.90
2019-01-13T00:01:59.103Z,5.78
2019-01-13T00:02:30.346Z,6.58
2019-01-13T00:03:01.512Z,6.78
2019-01-13T00:03:34.964Z,6.22
2019-01-13T00:04:06.180Z,7.53
2019-01-13T00:04:37.387Z,7.42
2019-01-13T00:05:08.888Z,6.47
2019-01-13T00:05:40.123Z,7.35
2019-01-13T00:06:11.320Z,7.20
2019-01-13T00:06:42.570Z,7.45
2019-01-13T00:07:13.759Z,7.80
2019-01-13T00:07:45.016Z,7.62
2019-01-13T00:08:16.299Z,6.80
2019-01-13T00:08:47.475Z,6.53
2019-01-13T00:09:18.676Z,8.00
2019-01-13T00:09:49.857Z,7.90
2019-01-13T00:10:21.080Z,7.80
2019-01-13T00:10:52.252Z,7.25
2019-01-13T00:11:25.708Z,7.67
2019-01-13T00:11:56.923Z,7.70
2019-01-13T00:12:28.132Z,8.10
2019-01-13T00:12:59.370Z,8.25
2019-01-13T00:13:30.626Z,8.58
2019-01-13T00:14:01.817Z,8.53
2019-01-13T00:14:33.077Z,8.53
2019-01-13T00:15:04.393Z,8.15
2019-01-13T00:15:35.626Z,9.08
2019-01-13T00:16:06.838Z,8.63
2019-01-13T00:16:38.079Z,8.95
2019-01-13T00:17:09.313Z,9.13
2019-01-13T00:17:40.574Z,9.25
2019-01-13T00:18:11.777Z,9.85
2019-01-13T00:18:42.982Z,9.93
2019-01-13T00:19:14.192Z,9.85
2019-01-13T00:19:45.445Z,9.13
2019-01-13T00:20:16.652Z,8.80
2019-01-13T00:20:47.843Z,8.95
2019-01-13T00:21:19.061Z,7.65
2019-01-13T00:21:50.263Z,12.23
2019-01-13T00:22:21.644Z,11.60
2019-01-13T00:22:52.841Z,10.43
2019-01-13T00:23:24.050Z,9.20
2019-01-13T00:23:55.248Z,10.90
2019-01-13T00:24:26.500Z,10.40
2019-01-13T00:24:57.690Z,12.95
2019-01-13T00:25:28.961Z,11.18
2019-01-13T00:26:00.195Z,10.78
2019-01-13T00:26:31.397Z,10.40
2019-01-13T00:27:02.596Z,12.10
2019-01-13T00:27:33.822Z,11.05
2019-01-13T00:28:05.017Z,13.95
2019-01-13T00:28:36.189Z,10.43
2019-01-13T00:29:08.132Z,13.50
2019-01-13T00:29:39.308Z,12.50
2019-01-13T00:30:10.539Z,12.55
2019-01-13T00:30:41.776Z,12.70
2019-01-13T00:31:13.064Z,10.93
2019-01-13T00:31:44.258Z,12.07
2019-01-13T00:32:15.451Z,12.00
2019-01-13T00:32:46.654Z,12.53
2019-01-13T00:33:17.845Z,12.43
2019-01-13T00:33:49.084Z,13.18
2019-01-13T00:34:20.331Z,12.55
2019-01-13T00:34:51.584Z,12.35
2019-01-13T00:35:22.816Z,12.50
2019-01-13T00:35:54.032Z,13.10
2019-01-13T00:36:25.242Z,13.65
2019-01-13T00:36:56.457Z,13.45
2019-01-13T00:37:27.645Z,15.25
2019-01-13T00:37:58.853Z,15.10
2019-01-13T00:38:30.094Z,14.60
2019-01-13T00:39:01.353Z,16.15
2019-01-13T00:39:32.613Z,18.02
2019-01-13T00:40:03.825Z,15.72
2019-01-13T00:40:37.536Z,15.68
2019-01-13T00:41:08.811Z,15.88
2019-01-13T00:41:40.053Z,20.10
2019-01-13T00:42:11.251Z,18.25
2019-01-13T00:42:42.478Z,16.82
2019-01-13T00:43:13.708Z,17.87
2019-01-13T00:43:44.907Z,17.85
2019-01-13T00:44:16.136Z,19.45
2019-01-13T00:44:47.321Z,16.97
2019-01-13T00:45:18.501Z,17.15
2019-01-13T00:45:49.737Z,18.75
2019-01-13T00:46:20.947Z,22.98
2019-01-13T00:46:52.221Z,18.20
2019-01-13T00:47:23.472Z,19.98
2019-01-13T00:47:54.736Z,19.37
2019-01-13T00:48:25.948Z,18.40
2019-01-13T00:48:57.155Z,18.57
2019-01-13T00:49:28.332Z,19.80
2019-01-13T00:49:59.541Z,20.43
2019-01-13T00:50:30.733Z,19.92
2019-01-13T00:51:01.932Z,21.20
2019-01-13T00:51:33.184Z,19.05
2019-01-13T00:52:04.361Z,18.82
2019-01-13T00:52:35.569Z,17.57
2019-01-13T00:53:06.810Z,19.70
2019-01-13T00:53:38.014Z,18.23
2019-01-13T00:54:09.223Z,20.32
2019-01-13T00:54:40.416Z,19.82
2019-01-13T00:55:11.653Z,19.65
2019-01-13T00:55:44.884Z,17.65
2019-01-13T00:56:16.075Z,18.37
2019-01-13T00:56:47.284Z,17.60
2019-01-13T00:57:18.489Z,19.00
2019-01-13T00:57:49.683Z,20.25
2019-01-13T00:58:21.644Z,18.95
2019-01-13T00:58:52.842Z,18.37
2019-01-13T00:59:24.068Z,18.20
2019-01-13T00:59:55.264Z,19.00
2019-01-13T01:00:27.011Z,17.67
2019-01-13T01:01:02.071Z,19.82
2019-01-13T01:01:33.280Z,17.92
2019-01-13T01:02:04.472Z,19.75
2019-01-13T01:02:35.719Z,20.27
2019-01-13T01:03:09.489Z,21.60
2019-01-13T01:03:40.687Z,19.35
2019-01-13T01:04:11.874Z,17.30
2019-01-13T01:04:43.083Z,19.30
2019-01-13T01:05:14.319Z,18.82
2019-01-13T01:05:45.571Z,17.10
2019-01-13T01:06:16.819Z,18.70
2019-01-13T01:06:48.057Z,20.92
2019-01-13T01:07:19.298Z,18.25
2019-01-13T01:07:50.547Z,19.40
2019-01-13T01:08:21.764Z,16.65
2019-01-13T01:08:52.955Z,17.98
2019-01-13T01:09:24.206Z,18.55
2019-01-13T01:09:57.707Z,19.25
2019-01-13T01:10:28.909Z,16.87
2019-01-13T01:11:00.198Z,18.37
2019-01-13T01:11:31.449Z,18.32
2019-01-13T01:12:02.639Z,19.48
2019-01-13T01:12:33.946Z,17.12
2019-01-13T01:13:05.190Z,17.82
2019-01-13T01:13:36.422Z,20.25
2019-01-13T01:14:09.887Z,18.52
2019-01-13T01:14:41.147Z,19.48
2019-01-13T01:15:12.302Z,18.32
2019-01-13T01:15:43.519Z,19.10
2019-01-13T01:16:14.767Z,16.80
2019-01-13T01:16:46.003Z,18.27
2019-01-13T01:17:17.236Z,17.57
2019-01-13T01:17:48.436Z,18.67
2019-01-13T01:18:19.608Z,16.87
2019-01-13T01:18:50.842Z,16.87
2019-01-13T01:19:22.079Z,17.37
2019-01-13T01:19:53.265Z,17.07
2019-01-13T01:20:24.497Z,15.88
2019-01-13T01:20:55.708Z,17.30
2019-01-13T01:21:26.941Z,18.05
2019-01-13T01:21:58.145Z,17.60
2019-01-13T01:22:29.424Z,17.32
2019-01-13T01:23:00.639Z,15.45
2019-01-13T01:23:31.850Z,17.92
2019-01-13T01:24:03.037Z,15.15
2019-01-13T01:24:34.315Z,16.02
2019-01-13T01:25:05.518Z,16.82
2019-01-13T01:25:36.709Z,14.80
2019-01-13T01:26:07.998Z,15.63
2019-01-13T01:26:39.222Z,16.15
2019-01-13T01:27:10.441Z,17.50
2019-01-13T01:27:41.632Z,15.20
2019-01-13T01:28:12.899Z,15.65
2019-01-13T01:28:44.470Z,15.20
2019-01-13T01:29:15.788Z,17.27
2019-01-13T01:29:47.043Z,14.07
2019-01-13T01:30:18.333Z,14.45
2019-01-13T01:30:49.525Z,13.75
2019-01-13T01:31:20.722Z,15.72
2019-01-13T01:31:51.921Z,14.75
2019-01-13T01:32:23.107Z,13.45
2019-01-13T01:32:54.329Z,17.07
2019-01-13T01:33:26.089Z,14.07
2019-01-13T01:33:57.479Z,13.30
2019-01-13T01:34:28.717Z,15.70
2019-01-13T01:34:59.936Z,15.25
2019-01-13T01:35:31.186Z,14.98
2019-01-13T01:36:02.376Z,13.78
2019-01-13T01:36:33.630Z,14.85
2019-01-13T01:37:04.896Z,13.13
2019-01-13T01:37:36.112Z,13.15
2019-01-13T01:38:07.339Z,14.43
2019-01-13T01:38:38.542Z,15.55
2019-01-13T01:39:09.749Z,14.10
2019-01-13T01:39:40.950Z,14.18
2019-01-13T01:40:12.129Z,15.43
2019-01-13T01:40:46.433Z,13.15
2019-01-13T01:41:17.677Z,14.10
2019-01-13T01:41:48.883Z,12.53
2019-01-13T01:42:20.127Z,15.08
2019-01-13T01:42:51.336Z,14.28
2019-01-13T01:43:22.538Z,14.98
2019-01-13T01:43:53.771Z,15.60
2019-01-13T01:44:25.019Z,13.98
2019-01-13T01:44:56.198Z,13.35
2019-01-13T01:45:27.422Z,13.83
2019-01-13T01:45:58.663Z,13.80
2019-01-13T01:46:29.868Z,14.78
2019-01-13T01:47:01.106Z,14.83
2019-01-13T01:47:32.360Z,14.47
2019-01-13T01:48:03.594Z,16.85
2019-01-13T01:48:34.818Z,17.85
2019-01-13T01:49:06.078Z,16.77
2019-01-13T01:49:37.344Z,19.77
2019-01-13T01:50:08.553Z,21.55
2019-01-13T01:50:39.769Z,18.15
2019-01-13T01:51:10.976Z,18.17
2019-01-13T01:51:42.212Z,15.88
2019-01-13T01:52:13.480Z,15.88
2019-01-13T01:52:44.697Z,17.12
2019-01-13T01:53:18.177Z,17.15
2019-01-13T01:53:49.403Z,16.75
2019-01-13T01:54:20.605Z,15.03
2019-01-13T01:54:51.835Z,14.00
2019-01-13T01:55:23.030Z,13.90
2019-01-13T01:55:54.269Z,14.85
2019-01-13T01:56:25.535Z,17.07
2019-01-13T01:56:56.810Z,16.10
2019-01-13T01:57:28.039Z,15.38
2019-01-13T01:57:59.247Z,14.98
2019-01-13T01:58:30.441Z,14.80
2019-01-13T01:59:01.629Z,14.85
2019-01-13T01:59:32.896Z,15.85
2019-01-13T02:00:04.139Z,15.38
2019-01-13T02:00:40.585Z,13.78
2019-01-13T02:01:08.400Z,13.10
2019-01-13T02:01:41.864Z,14.65
2019-01-13T02:02:13.123Z,14.23
2019-01-13T02:02:44.314Z,14.45
2019-01-13T02:03:15.557Z,12.40
2019-01-13T02:03:46.774Z,17.40
2019-01-13T02:04:18.042Z,13.45
2019-01-13T02:04:49.312Z,13.35
2019-01-13T02:05:20.671Z,12.60
2019-01-13T02:05:51.933Z,13.10
2019-01-13T02:06:23.183Z,11.30
2019-01-13T02:06:54.443Z,12.18
2019-01-13T02:07:25.643Z,12.07
2019-01-13T02:07:59.045Z,12.60
2019-01-13T02:08:30.221Z,12.37
2019-01-13T02:09:01.463Z,12.47
2019-01-13T02:09:32.641Z,12.03
2019-01-13T02:10:03.910Z,12.15
2019-01-13T02:10:35.132Z,11.93
2019-01-13T02:11:06.375Z,13.25
2019-01-13T02:11:37.547Z,11.28
2019-01-13T02:12:08.854Z,11.73
2019-01-13T02:12:40.068Z,13.68
2019-01-13T02:13:11.302Z,14.40
2019-01-13T02:13:42.524Z,12.98
2019-01-13T02:14:13.733Z,11.95
2019-01-13T02:14:44.954Z,13.53
2019-01-13T02:15:16.264Z,13.72
2019-01-13T02:15:47.476Z,14.30
2019-01-13T02:16:18.686Z,14.23
2019-01-13T02:16:50.806Z,13.98
2019-01-13T02:17:22.025Z,15.48
2019-01-13T02:17:53.259Z,14.63
2019-01-13T02:18:24.475Z,14.83
2019-01-13T02:18:55.741Z,16.20
2019-01-13T02:19:27.019Z,16.50
2019-01-13T02:19:58.237Z,16.17
2019-01-13T02:20:29.473Z,16.27
2019-01-13T02:21:00.659Z,15.88
2019-01-13T02:21:31.837Z,15.48
2019-01-13T02:22:03.071Z,15.13
2019-01-13T02:22:34.299Z,14.63
2019-01-13T02:23:05.556Z,15.80
2019-01-13T02:23:37.934Z,14.28
2019-01-13T02:24:09.159Z,14.70
2019-01-13T02:24:40.387Z,13.48
2019-01-13T02:25:11.569Z,14.15
2019-01-13T02:25:43.655Z,15.68
2019-01-13T02:26:14.847Z,15.05
2019-01-13T02:26:46.125Z,14.23
2019-01-13T02:27:17.395Z,15.68
2019-01-13T02:27:48.609Z,13.32
2019-01-13T02:28:19.905Z,15.00
2019-01-13T02:28:51.189Z,13.68
2019-01-13T02:29:22.392Z,14.20
2019-01-13T02:29:53.646Z,14.43
2019-01-13T02:30:24.898Z,16.12
2019-01-13T02:30:56.110Z,14.98
2019-01-13T02:31:28.149Z,16.32
2019-01-13T02:31:59.350Z,17.82
2019-01-13T02:32:30.543Z,19.02
2019-01-13T02:33:01.752Z,17.90
2019-01-13T02:33:33.008Z,16.55
2019-01-13T02:34:04.209Z,19.92
2019-01-13T02:34:35.392Z,17.75
2019-01-13T02:35:06.617Z,19.55
2019-01-13T02:35:37.882Z,20.90
2019-01-13T02:36:09.101Z,17.12
2019-01-13T02:36:40.311Z,19.30
2019-01-13T02:37:11.565Z,19.23
2019-01-13T02:37:42.750Z,19.07
2019-01-13T02:38:13.979Z,21.40
2019-01-13T02:38:45.236Z,18.95
2019-01-13T02:39:16.532Z,20.05
2019-01-13T02:39:47.803Z,18.90
2019-01-13T02:40:19.096Z,18.23
2019-01-13T02:40:50.345Z,16.42
2019-01-13T02:41:21.595Z,16.00
2019-01-13T02:41:52.825Z,17.00
2019-01-13T02:42:24.078Z,16.77
2019-01-13T02:42:55.295Z,16.40
2019-01-13T02:43:26.506Z,15.23
2019-01-13T02:43:57.726Z,16.40
2019-01-13T02:44:28.993Z,16.35
2019-01-13T02:45:00.266Z,18.67
2019-01-13T02:45:31.491Z,15.03
2019-01-13T02:46:02.795Z,13.15
2019-01-13T02:46:34.060Z,15.63
2019-01-13T02:47:05.356Z,14.87
2019-01-13T02:47:36.569Z,13.83
2019-01-13T02:48:07.780Z,14.60
2019-01-13T02:48:39.073Z,16.45
2019-01-13T02:49:10.303Z,13.80
2019-01-13T02:49:41.583Z,14.55
2019-01-13T02:50:12.853Z,14.63
2019-01-13T02:50:44.107Z,16.50
2019-01-13T02:51:15.306Z,14.30
2019-01-13T02:51:46.575Z,15.80
2019-01-13T02:52:17.798Z,16.30
2019-01-13T02:52:49.054Z,13.93
2019-01-13T02:53:20.347Z,16.20
2019-01-13T02:53:51.595Z,18.35
2019-01-13T02:54:22.914Z,18.07
2019-01-13T02:54:54.898Z,19.37
2019-01-13T02:55:26.134Z,19.30
2019-01-13T02:55:57.378Z,17.92
2019-01-13T02:56:28.693Z,18.30
2019-01-13T02:56:59.891Z,18.32
2019-01-13T02:57:31.139Z,17.40
2019-01-13T02:58:02.364Z,18.85
2019-01-13T02:58:33.595Z,18.80
2019-01-13T02:59:04.816Z,19.17
2019-01-13T02:59:36.079Z,19.70
2019-01-13T03:00:07.344Z,18.05
2019-01-13T03:00:38.568Z,19.70
2019-01-13T03:01:09.770Z,18.37
2019-01-13T03:01:41.061Z,20.20
2019-01-13T03:02:13.093Z,18.40
2019-01-13T03:02:44.390Z,18.23
2019-01-13T03:03:15.580Z,16.25
2019-01-13T03:03:47.859Z,17.37
2019-01-13T03:04:19.131Z,16.73
2019-01-13T03:04:50.396Z,15.70
2019-01-13T03:05:21.683Z,17.82
2019-01-13T03:05:52.937Z,15.88
2019-01-13T03:06:24.179Z,17.23
2019-01-13T03:06:55.446Z,14.28
2019-01-13T03:07:26.662Z,23.73
2019-01-13T03:07:57.994Z,15.32
2019-01-13T03:08:29.318Z,15.72
2019-01-13T03:09:00.604Z,15.05
2019-01-13T03:09:31.816Z,14.58
2019-01-13T03:10:03.083Z,16.40
2019-01-13T03:10:34.290Z,15.50
2019-01-13T03:11:05.652Z,15.68
2019-01-13T03:11:36.847Z,14.83
2019-01-13T03:12:08.103Z,15.83
2019-01-13T03:12:39.307Z,13.22
2019-01-13T03:13:10.570Z,16.07
2019-01-13T03:13:41.818Z,16.93
2019-01-13T03:14:13.066Z,13.78
2019-01-13T03:14:44.256Z,13.48
2019-01-13T03:15:19.317Z,13.95
2019-01-13T03:15:48.420Z,14.70
2019-01-13T03:16:19.666Z,14.50
2019-01-13T03:16:50.945Z,12.28
2019-01-13T03:17:22.182Z,12.50
2019-01-13T03:17:53.492Z,15.00
2019-01-13T03:18:24.755Z,13.78
2019-01-13T03:18:56.022Z,13.20
2019-01-13T03:19:27.260Z,14.03
2019-01-13T03:19:58.480Z,14.18
2019-01-13T03:20:29.790Z,15.08
2019-01-13T03:21:01.757Z,14.53
2019-01-13T03:21:33.027Z,15.25
2019-01-13T03:22:04.287Z,14.10
2019-01-13T03:22:35.507Z,15.72
2019-01-13T03:23:06.659Z,14.40
2019-01-13T03:23:37.896Z,15.50
2019-01-13T03:24:09.123Z,14.53
2019-01-13T03:24:40.331Z,17.45
2019-01-13T03:25:12.120Z,16.82
2019-01-13T03:25:43.666Z,15.05
2019-01-13T03:26:15.013Z,15.70
2019-01-13T03:26:46.299Z,16.75
2019-01-13T03:27:17.581Z,15.95
2019-01-13T03:27:48.818Z,15.08
2019-01-13T03:28:20.057Z,13.35
2019-01-13T03:28:51.362Z,13.05
2019-01-13T03:29:22.560Z,14.25
2019-01-13T03:29:53.799Z,13.00
2019-01-13T03:30:25.074Z,14.28
2019-01-13T03:30:56.395Z,14.03
2019-01-13T03:31:27.604Z,16.00
2019-01-13T03:31:58.807Z,13.48
2019-01-13T03:32:30.066Z,16.00
2019-01-13T03:33:01.327Z,14.70
2019-01-13T03:33:32.571Z,15.55
2019-01-13T03:34:03.788Z,15.23
2019-01-13T03:34:35.005Z,15.95
2019-01-13T03:35:06.218Z,16.57
2019-01-13T03:35:37.495Z,15.32
2019-01-13T03:36:08.709Z,17.07
2019-01-13T03:36:39.992Z,17.52
2019-01-13T03:37:11.239Z,16.67
2019-01-13T03:37:42.545Z,17.45
2019-01-13T03:38:13.758Z,16.87
2019-01-13T03:38:44.994Z,15.40
2019-01-13T03:39:18.494Z,18.32
2019-01-13T03:39:49.720Z,17.30
2019-01-13T03:40:20.989Z,14.65
2019-01-13T03:40:52.193Z,18.90
2019-01-13T03:41:23.576Z,17.98
2019-01-13T03:41:54.783Z,15.80
2019-01-13T03:42:26.048Z,18.67
2019-01-13T03:42:57.348Z,16.70
2019-01-13T03:43:28.575Z,17.95
2019-01-13T03:43:59.839Z,15.70
2019-01-13T03:44:31.159Z,16.20
2019-01-13T03:45:02.379Z,18.65
2019-01-13T03:45:33.605Z,16.77
2019-01-13T03:46:04.889Z,16.85
2019-01-13T03:46:36.136Z,15.90
2019-01-13T03:47:07.402Z,17.32
2019-01-13T03:47:38.689Z,17.00
2019-01-13T03:48:09.963Z,16.75
2019-01-13T03:48:41.227Z,17.23
2019-01-13T03:49:12.492Z,17.40
2019-01-13T03:49:43.745Z,16.85
2019-01-13T03:50:15.056Z,16.90
2019-01-13T03:50:46.299Z,19.90
2019-01-13T03:51:17.642Z,18.30
2019-01-13T03:51:48.947Z,20.17
2019-01-13T03:52:20.207Z,17.62
2019-01-13T03:52:53.303Z,17.23
2019-01-13T03:53:24.508Z,19.07
2019-01-13T03:53:55.876Z,20.85
2019-01-13T03:54:27.128Z,16.37
2019-01-13T03:54:58.349Z,17.35
2019-01-13T03:55:29.603Z,16.62
2019-01-13T03:56:00.838Z,18.23
2019-01-13T03:56:32.099Z,16.85
2019-01-13T03:57:03.318Z,18.92
2019-01-13T03:57:34.569Z,16.45
2019-01-13T03:58:05.816Z,16.95
2019-01-13T03:58:37.064Z,18.12
2019-01-13T03:59:08.288Z,18.52
2019-01-13T03:59:39.547Z,19.15
2019-01-13T04:00:10.771Z,19.35
2019-01-13T04:00:42.049Z,21.15
2019-01-13T04:01:18.518Z,16.17
2019-01-13T04:01:46.314Z,17.73
2019-01-13T04:02:17.537Z,17.45
2019-01-13T04:02:48.774Z,17.95
2019-01-13T04:03:22.260Z,17.23
2019-01-13T04:03:53.480Z,17.67
2019-01-13T04:04:24.689Z,17.42
2019-01-13T04:04:55.964Z,17.82
2019-01-13T04:05:27.174Z,16.70
2019-01-13T04:05:58.444Z,18.35
2019-01-13T04:06:29.670Z,16.35
2019-01-13T04:07:00.949Z,15.32
2019-01-13T04:07:32.213Z,17.10
2019-01-13T04:08:03.430Z,18.02
2019-01-13T04:08:34.686Z,19.62
2019-01-13T04:09:05.880Z,18.92
2019-01-13T04:09:37.109Z,19.12
2019-01-13T04:10:08.330Z,17.77
2019-01-13T04:10:39.486Z,19.00
2019-01-13T04:11:10.724Z,21.52
2019-01-13T04:11:41.971Z,19.17
2019-01-13T04:12:13.240Z,18.02
2019-01-13T04:12:44.467Z,18.62
2019-01-13T04:13:15.857Z,18.92
2019-01-13T04:13:47.062Z,18.77
2019-01-13T04:14:18.319Z,19.02
2019-01-13T04:14:49.607Z,19.35
2019-01-13T04:15:20.838Z,19.02
2019-01-13T04:15:52.063Z,18.70
2019-01-13T04:16:23.324Z,21.50
2019-01-13T04:16:54.542Z,18.50
2019-01-13T04:17:25.852Z,19.60
2019-01-13T04:17:57.107Z,20.88
2019-01-13T04:18:28.324Z,18.30
2019-01-13T04:18:59.592Z,20.05
2019-01-13T04:19:30.868Z,18.92
2019-01-13T04:20:03.163Z,17.90
2019-01-13T04:20:34.480Z,17.37
2019-01-13T04:21:05.793Z,17.65
2019-01-13T04:21:37.052Z,18.07
2019-01-13T04:22:08.306Z,19.65
2019-01-13T04:22:39.608Z,20.00
2019-01-13T04:23:10.873Z,16.57
2019-01-13T04:23:42.199Z,16.48
2019-01-13T04:24:13.451Z,18.62
2019-01-13T04:24:44.743Z,16.25
2019-01-13T04:25:15.914Z,18.10
2019-01-13T04:25:47.187Z,16.90
2019-01-13T04:26:18.445Z,17.05
2019-01-13T04:26:49.682Z,15.68
2019-01-13T04:27:20.925Z,15.25
2019-01-13T04:27:52.219Z,16.65
2019-01-13T04:28:23.427Z,15.48
2019-01-13T04:28:54.684Z,15.13
2019-01-13T04:29:25.894Z,15.63
2019-01-13T04:29:57.110Z,15.88
2019-01-13T04:30:28.366Z,15.93
2019-01-13T04:30:59.588Z,16.23
2019-01-13T04:31:30.900Z,15.18
2019-01-13T04:32:02.185Z,15.85
2019-01-13T04:32:33.400Z,13.45
2019-01-13T04:33:04.687Z,14.30
2019-01-13T04:33:35.974Z,12.88
2019-01-13T04:34:07.186Z,11.68
2019-01-13T04:34:38.468Z,11.85
2019-01-13T04:35:09.689Z,11.88
2019-01-13T04:35:40.966Z,11.68
2019-01-13T04:36:12.290Z,13.50
2019-01-13T04:36:43.567Z,10.45
2019-01-13T04:37:14.822Z,10.10
2019-01-13T04:37:46.014Z,10.20
2019-01-13T04:38:17.242Z,11.90
2019-01-13T04:38:48.486Z,9.93
2019-01-13T04:39:19.687Z,9.43
2019-01-13T04:39:50.899Z,9.13
2019-01-13T04:40:22.122Z,11.75
2019-01-13T04:40:53.319Z,10.18
2019-01-13T04:41:25.055Z,11.05
2019-01-13T04:41:56.335Z,10.55
2019-01-13T04:42:27.563Z,11.45
2019-01-13T04:43:01.040Z,12.78
2019-01-13T04:43:32.254Z,9.00
2019-01-13T04:44:03.509Z,12.55
2019-01-13T04:44:34.799Z,10.55
2019-01-13T04:45:06.036Z,8.50
2019-01-13T04:45:37.242Z,7.97
2019-01-13T04:46:08.503Z,9.33
2019-01-13T04:46:39.755Z,9.18
2019-01-13T04:47:10.976Z,9.93
2019-01-13T04:47:42.212Z,7.35
2019-01-13T04:48:13.522Z,9.23
2019-01-13T04:48:44.676Z,9.75
2019-01-13T04:49:15.925Z,8.40
2019-01-13T04:49:47.142Z,8.15
2019-01-13T04:50:18.387Z,7.80
2019-01-13T04:50:49.584Z,7.85
2019-01-13T04:51:20.797Z,7.60
2019-01-13T04:51:52.020Z,7.72
2019-01-13T04:52:23.216Z,8.78
2019-01-13T04:52:54.452Z,7.58
2019-01-13T04:53:25.719Z,7.83
2019-01-13T04:53:56.963Z,7.42
2019-01-13T04:54:28.177Z,7.95
2019-01-13T04:54:59.385Z,7.90
2019-01-13T04:55:30.607Z,7.45
2019-01-13T04:56:01.829Z,6.37
2019-01-13T04:56:33.076Z,8.15
2019-01-13T04:57:04.283Z,7.67
2019-01-13T04:57:35.490Z,8.00
2019-01-13T04:58:06.758Z,7.65
2019-01-13T04:58:37.972Z,7.42
2019-01-13T04:59:09.235Z,8.20
2019-01-13T04:59:40.516Z,6.28
2019-01-13T05:00:11.698Z,7.65
2019-01-13T05:00:42.943Z,6.80
2019-01-13T05:01:14.160Z,6.95
2019-01-13T05:01:45.355Z,7.00
2019-01-13T05:02:16.581Z,7.10
2019-01-13T05:02:47.796Z,7.80
2019-01-13T05:03:19.066Z,7.37
2019-01-13T05:03:50.319Z,6.58
2019-01-13T05:04:21.547Z,6.75
2019-01-13T05:04:52.740Z,5.65
2019-01-13T05:05:23.994Z,7.53
2019-01-13T05:05:55.187Z,6.65
2019-01-13T05:06:26.444Z,6.28
2019-01-13T05:06:57.712Z,6.55
2019-01-13T05:07:28.966Z,5.80
2019-01-13T05:08:00.190Z,6.20
2019-01-13T05:08:31.445Z,5.78
2019-01-13T05:09:02.653Z,5.90
2019-01-13T05:09:33.890Z,7.12
2019-01-13T05:10:05.158Z,6.17
2019-01-13T05:10:36.432Z,7.17
2019-01-13T05:11:07.646Z,5.90
2019-01-13T05:11:38.841Z,6.87
2019-01-13T05:12:10.080Z,6.37
2019-01-13T05:12:41.358Z,6.50
2019-01-13T05:13:12.565Z,6.45
2019-01-13T05:13:43.846Z,6.60
2019-01-13T05:14:15.015Z,7.55
2019-01-13T05:14:46.241Z,7.30
2019-01-13T05:15:17.500Z,7.25
2019-01-13T05:15:48.739Z,7.08
2019-01-13T05:16:19.981Z,6.70
2019-01-13T05:16:51.274Z,6.37
2019-01-13T05:17:22.661Z,6.75
2019-01-13T05:17:53.872Z,6.70
2019-01-13T05:18:25.107Z,6.08
2019-01-13T05:18:56.324Z,5.47
2019-01-13T05:19:27.578Z,7.42
2019-01-13T05:19:58.751Z,6.78
2019-01-13T05:20:29.932Z,6.12
2019-01-13T05:21:01.226Z,6.87
2019-01-13T05:21:32.399Z,7.20
2019-01-13T05:22:03.638Z,7.12
2019-01-13T05:22:34.917Z,7.17
2019-01-13T05:23:06.127Z,6.22
2019-01-13T05:23:37.332Z,7.20
2019-01-13T05:24:08.536Z,8.55
2019-01-13T05:24:39.692Z,5.97
2019-01-13T05:25:10.919Z,5.80
2019-01-13T05:25:42.118Z,6.95
2019-01-13T05:26:13.301Z,5.28
2019-01-13T05:26:44.490Z,6.40
2019-01-13T05:27:15.727Z,5.90
2019-01-13T05:27:46.974Z,5.58
2019-01-13T05:28:18.185Z,6.22
2019-01-13T05:28:49.413Z,6.08
2019-01-13T05:29:20.622Z,5.90
2019-01-13T05:29:51.804Z,6.47
2019-01-13T05:30:23.012Z,5.95
2019-01-13T05:30:54.317Z,7.45
2019-01-13T05:31:25.523Z,6.55
2019-01-13T05:31:56.772Z,6.85
2019-01-13T05:32:27.975Z,5.92
2019-01-13T05:32:59.170Z,6.90
2019-01-13T05:33:30.381Z,6.50
2019-01-13T05:34:01.641Z,6.72
2019-01-13T05:34:32.900Z,5.47
2019-01-13T05:35:04.077Z,6.85
2019-01-13T05:35:35.282Z,6.03
2019-01-13T05:36:06.507Z,5.67
2019-01-13T05:36:37.752Z,5.45
2019-01-13T05:37:08.991Z,7.03
2019-01-13T05:37:40.202Z,6.25
2019-01-13T05:38:11.423Z,5.58
2019-01-13T05:38:42.653Z,5.55
2019-01-13T05:39:13.882Z,7.03
2019-01-13T05:39:45.134Z,6.20
2019-01-13T05:40:16.401Z,6.03
2019-01-13T05:40:48.728Z,7.25
2019-01-13T05:41:20.030Z,6.55
2019-01-13T05:41:51.198Z,6.53
2019-01-13T05:42:22.427Z,5.97
2019-01-13T05:42:53.649Z,5.67
2019-01-13T05:43:24.838Z,6.33
2019-01-13T05:43:56.021Z,7.62
2019-01-13T05:44:27.202Z,5.97
2019-01-13T05:44:59.856Z,5.55
2019-01-13T05:45:31.108Z,6.45
2019-01-13T05:46:02.349Z,6.33
2019-01-13T05:46:33.532Z,5.92
2019-01-13T05:47:04.826Z,6.05
2019-01-13T05:47:36.031Z,7.08
2019-01-13T05:48:07.244Z,6.20
2019-01-13T05:48:38.435Z,6.55
2019-01-13T05:49:09.671Z,5.90
2019-01-13T05:49:40.874Z,7.30
2019-01-13T05:50:12.050Z,6.28
2019-01-13T05:50:43.221Z,7.70
2019-01-13T05:51:14.402Z,6.97
2019-01-13T05:51:45.641Z,6.50
2019-01-13T05:52:16.898Z,5.80
2019-01-13T05:52:48.104Z,6.65
2019-01-13T05:53:19.282Z,6.92
2019-01-13T05:53:50.480Z,6.45
2019-01-13T05:54:21.681Z,5.50
2019-01-13T05:54:52.898Z,7.97
2019-01-13T05:55:24.031Z,6.85
2019-01-13T05:55:55.243Z,7.30
2019-01-13T05:56:26.451Z,7.25
2019-01-13T05:56:57.741Z,7.35
2019-01-13T05:57:28.991Z,7.60
2019-01-13T05:58:00.161Z,5.83
2019-01-13T05:58:31.428Z,6.53
2019-01-13T05:59:02.644Z,6.87
2019-01-13T05:59:33.848Z,6.50
2019-01-13T06:00:05.087Z,6.00
2019-01-13T06:00:36.336Z,7.70
2019-01-13T06:01:07.583Z,5.47
2019-01-13T06:01:38.861Z,6.83
2019-01-13T06:02:10.115Z,7.90
2019-01-13T06:02:41.356Z,6.10
2019-01-13T06:03:12.546Z,6.47
2019-01-13T06:03:43.779Z,7.12
2019-01-13T06:04:14.956Z,6.37
2019-01-13T06:04:46.191Z,7.15
2019-01-13T06:05:17.376Z,6.65
2019-01-13T06:05:48.747Z,6.70
2019-01-13T06:06:19.959Z,7.75
2019-01-13T06:06:51.214Z,7.05
2019-01-13T06:07:24.004Z,5.28
2019-01-13T06:07:55.192Z,5.70
2019-01-13T06:08:26.386Z,7.33
2019-01-13T06:08:57.570Z,8.35
2019-01-13T06:09:28.747Z,6.87
2019-01-13T06:09:59.945Z,6.55
2019-01-13T06:10:31.181Z,6.95
2019-01-13T06:11:02.350Z,7.47
2019-01-13T06:11:33.526Z,5.85
2019-01-13T06:12:04.737Z,6.83
2019-01-13T06:12:36.055Z,6.62
2019-01-13T06:13:08.170Z,6.87
2019-01-13T06:13:39.402Z,7.22
2019-01-13T06:14:10.582Z,5.83
2019-01-13T06:14:41.797Z,8.10
2019-01-13T06:15:12.966Z,6.50
2019-01-13T06:15:45.747Z,6.60
2019-01-13T06:16:17.033Z,8.65
2019-01-13T06:16:48.215Z,7.10
2019-01-13T06:17:19.387Z,6.60
2019-01-13T06:17:50.603Z,6.45
2019-01-13T06:18:21.868Z,7.03
2019-01-13T06:18:53.047Z,8.38
2019-01-13T06:19:24.209Z,7.45
2019-01-13T06:19:55.377Z,6.28
2019-01-13T06:20:26.556Z,7.78
2019-01-13T06:20:57.781Z,6.65
2019-01-13T06:21:28.977Z,7.45
2019-01-13T06:22:00.174Z,7.40
2019-01-13T06:22:31.402Z,8.05
2019-01-13T06:23:02.622Z,6.80
2019-01-13T06:23:33.809Z,7.15
2019-01-13T06:24:04.994Z,8.58
2019-01-13T06:24:36.189Z,7.08
2019-01-13T06:25:08.280Z,6.90
2019-01-13T06:25:39.461Z,6.87
2019-01-13T06:26:10.639Z,7.08
2019-01-13T06:26:41.819Z,8.38
2019-01-13T06:27:13.022Z,8.08
2019-01-13T06:27:44.188Z,9.73
2019-01-13T06:28:15.421Z,7.12
2019-01-13T06:28:46.607Z,7.05
2019-01-13T06:29:17.791Z,8.23
2019-01-13T06:29:48.942Z,7.33
2019-01-13T06:30:20.183Z,9.43
2019-01-13T06:30:51.359Z,6.65
2019-01-13T06:31:22.554Z,6.97
2019-01-13T06:31:56.402Z,7.75
2019-01-13T06:32:26.704Z,9.03
2019-01-13T06:32:57.894Z,8.85
2019-01-13T06:33:29.048Z,7.75
2019-01-13T06:34:00.541Z,6.97
2019-01-13T06:34:31.707Z,6.65
2019-01-13T06:35:02.893Z,7.75
2019-01-13T06:35:34.104Z,7.28
2019-01-13T06:36:05.311Z,6.80
2019-01-13T06:36:36.504Z,7.95
2019-01-13T06:37:07.732Z,8.03
2019-01-13T06:37:38.920Z,7.78
2019-01-13T06:38:10.091Z,7.60
2019-01-13T06:38:41.277Z,7.22
2019-01-13T06:39:12.446Z,6.92
2019-01-13T06:39:43.636Z,8.18
2019-01-13T06:40:14.807Z,6.33
2019-01-13T06:40:45.990Z,6.92
2019-01-13T06:41:17.169Z,7.37
2019-01-13T06:41:48.339Z,8.53
2019-01-13T06:42:19.568Z,8.23
2019-01-13T06:42:50.757Z,8.33
2019-01-13T06:43:21.964Z,7.03
2019-01-13T06:43:53.160Z,7.53
2019-01-13T06:44:24.296Z,7.85
2019-01-13T06:44:55.504Z,7.47
2019-01-13T06:45:26.704Z,7.25
2019-01-13T06:45:57.911Z,8.45
2019-01-13T06:46:29.092Z,7.05
2019-01-13T06:47:00.295Z,7.35
2019-01-13T06:47:31.459Z,7.20
2019-01-13T06:48:02.666Z,7.47